Time;durP1;ratioP1;P1;durP2;ratioP2;P2;SDS_P1;SDS_P2;PMS_P1;PMS_P2;Temp;Humidity;BMP_temperature;BMP_pressure;BME280_temperature;BME280_humidity;BME280_pressure;Samples;Min_cycle;Max_cycle;Signal;HPM_P1;HPM_P2
2023/07/25 00:00:00;;;;;;;6.43;3.40;;;;;;;24.20;100.00;99939.16;5012323;28;20061;-75
2023/07/25 00:02:28;;;;;;;7.22;3.33;;;;;;;23.90;100.00;99909.81;5015125;28;20056;-74
2023/07/25 00:04:53;;;;;;;7.10;3.58;;;;;;;23.98;100.00;99947.72;5047097;28;20107;-74
2023/07/25 00:07:19;;;;;;;6.43;3.85;;;;;;;24.05;100.00;99942.00;5006913;28;20436;-74
2023/07/25 00:09:45;;;;;;;12.10;4.28;;;;;;;23.90;100.00;99915.19;5018172;28;20641;-75
2023/07/25 00:12:11;;;;;;;7.72;3.83;;;;;;;23.85;100.00;99898.53;5019523;28;20693;-75
2023/07/25 00:14:42;;;;;;;7.13;3.17;;;;;;;23.68;100.00;99879.97;5013402;28;20083;-76
2023/07/25 00:17:14;;;;;;;7.07;3.83;;;;;;;23.30;100.00;99830.53;5017911;28;20387;-75
2023/07/25 00:19:42;;;;;;;10.48;4.97;;;;;;;23.77;100.00;99936.53;5014120;28;20100;-76
2023/07/25 00:22:21;;;;;;;8.15;4.25;;;;;;;23.27;100.00;99837.88;5024196;28;20033;-76
2023/07/25 00:24:49;;;;;;;5.95;3.15;;;;;;;23.48;100.00;99895.44;5015209;28;20049;-75
2023/07/25 00:27:15;;;;;;;12.95;4.18;;;;;;;23.77;100.00;99943.72;5011346;28;20053;-76
2023/07/25 00:29:40;;;;;;;6.32;4.30;;;;;;;23.86;100.00;99944.94;5012668;28;20454;-75
2023/07/25 00:32:06;;;;;;;6.82;3.97;;;;;;;23.87;100.00;99942.19;5010863;28;20502;-75
2023/07/25 00:34:32;;;;;;;9.65;3.55;;;;;;;23.84;100.00;99928.97;5011651;28;20045;-75
2023/07/25 00:36:58;;;;;;;10.25;8.20;;;;;;;23.89;100.00;99926.00;5014650;28;20512;-75
2023/07/25 00:39:23;;;;;;;8.02;3.45;;;;;;;23.61;100.00;99895.56;5008130;28;20042;-75
2023/07/25 00:41:49;;;;;;;8.23;5.60;;;;;;;23.39;100.00;99867.44;5008216;28;20025;-76
2023/07/25 00:44:14;;;;;;;7.20;3.70;;;;;;;23.76;100.00;99931.28;5017488;28;20798;-75
2023/07/25 00:46:43;;;;;;;6.82;3.38;;;;;;;23.69;100.00;99921.84;5008443;28;20439;-75
2023/07/25 00:49:09;;;;;;;8.32;3.90;;;;;;;23.71;100.00;99909.22;5021334;28;20044;-75
2023/07/25 00:51:35;;;;;;;6.93;4.30;;;;;;;23.75;100.00;99921.53;5020162;28;20046;-74
2023/07/25 00:54:01;;;;;;;7.63;4.50;;;;;;;23.58;100.00;99903.78;5013328;28;20516;-76
2023/07/25 00:56:27;;;;;;;8.07;3.55;;;;;;;23.11;100.00;99840.66;5014712;28;20065;-75
2023/07/25 00:58:54;;;;;;;8.38;3.92;;;;;;;23.00;100.00;99822.56;5017373;28;20128;-75
2023/07/25 01:01:21;;;;;;;8.52;3.90;;;;;;;23.68;100.00;99922.84;5012622;28;20494;-76
2023/07/25 01:03:47;;;;;;;8.95;4.28;;;;;;;23.74;100.00;99911.75;5015152;28;20057;-74
2023/07/25 01:06:14;;;;;;;6.25;3.67;;;;;;;23.77;100.00;99917.78;5022589;28;20511;-75
2023/07/25 01:08:52;;;;;;;10.95;3.92;;;;;;;23.08;100.00;99812.22;5008640;28;20038;-75
2023/07/25 01:11:21;;;;;;;8.40;3.58;;;;;;;23.09;100.00;99823.81;5034280;28;20104;-75
2023/07/25 01:13:51;;;;;;;8.90;3.45;;;;;;;23.36;100.00;99880.16;4990152;28;20133;-75
2023/07/25 01:16:27;;;;;;;9.75;4.30;;;;;;;23.15;100.00;99845.69;5009141;28;20409;-74
2023/07/25 01:18:55;;;;;;;7.72;4.25;;;;;;;23.07;100.00;99831.09;5016762;28;20050;-76
2023/07/25 01:21:24;;;;;;;8.30;4.28;;;;;;;23.07;100.00;99823.91;5001226;28;20057;-75
2023/07/25 01:23:50;;;;;;;5.10;3.17;;;;;;;22.90;100.00;99805.34;4992895;28;20030;-74
2023/07/25 01:26:18;;;;;;;5.10;3.53;;;;;;;23.26;100.00;99870.97;5013924;28;20141;-75
2023/07/25 01:28:44;;;;;;;8.45;4.40;;;;;;;23.44;100.00;99899.28;4998017;28;20089;-76
2023/07/25 01:31:09;;;;;;;7.18;5.13;;;;;;;23.48;100.00;99892.75;4988755;28;20066;-75
2023/07/25 01:33:35;;;;;;;8.25;4.00;;;;;;;22.76;100.00;99796.31;4995597;28;20042;-75
2023/07/25 01:36:02;;;;;;;10.07;4.22;;;;;;;23.12;100.00;99855.75;4988572;28;20060;-76
2023/07/25 01:38:27;;;;;;;8.43;4.35;;;;;;;23.38;100.00;99895.16;5006621;28;20041;-75
2023/07/25 01:40:53;;;;;;;13.70;4.07;;;;;;;23.37;100.00;99898.81;4988733;28;20097;-75
2023/07/25 01:43:18;;;;;;;8.82;4.47;;;;;;;23.29;100.00;99895.72;5030630;28;20082;-75
2023/07/25 01:45:44;;;;;;;8.90;5.15;;;;;;;22.67;100.00;99812.91;5002610;28;20062;-75
2023/07/25 01:48:10;;;;;;;6.38;2.63;;;;;;;22.83;100.00;99830.69;5008572;28;20082;-75
2023/07/25 01:50:35;;;;;;;7.82;3.72;;;;;;;22.75;100.00;99799.94;4998704;28;20064;-75
2023/07/25 01:53:01;;;;;;;8.20;4.25;;;;;;;22.78;100.00;99809.59;4992689;28;20058;-76
2023/07/25 01:55:26;;;;;;;12.18;3.88;;;;;;;23.31;100.00;99906.34;5003718;28;20641;-74
2023/07/25 01:57:51;;;;;;;7.47;4.10;;;;;;;23.13;100.00;99890.47;4994022;28;20120;-74
2023/07/25 02:00:17;;;;;;;9.63;5.20;;;;;;;23.11;100.00;99891.50;4994188;28;20490;-74
2023/07/25 02:02:42;;;;;;;8.95;3.70;;;;;;;21.62;100.00;99625.78;5006218;28;20045;-75
2023/07/25 02:05:08;;;;;;;7.07;3.72;;;;;;;23.13;100.00;99889.56;5010948;28;20096;-75
2023/07/25 02:07:33;;;;;;;8.27;3.83;;;;;;;23.28;100.00;99907.41;5014211;28;20069;-76
2023/07/25 02:09:59;;;;;;;8.48;3.85;;;;;;;23.23;100.00;99903.28;5020320;28;20045;-75
2023/07/25 02:12:26;;;;;;;7.03;4.05;;;;;;;23.23;100.00;99900.63;5007396;28;20037;-75
2023/07/25 02:14:51;;;;;;;8.30;4.35;;;;;;;23.21;100.00;99899.84;5012818;28;20116;-75
2023/07/25 02:17:19;;;;;;;5.60;3.50;;;;;;;23.10;100.00;99885.28;4991526;28;20149;-75
2023/07/25 02:19:45;;;;;;;8.10;5.20;;;;;;;22.52;100.00;99782.63;4990953;28;20055;-76
2023/07/25 02:22:10;;;;;;;12.18;4.60;;;;;;;22.85;100.00;99852.88;5001136;28;20053;-76
2023/07/25 02:24:35;;;;;;;5.78;4.07;;;;;;;22.92;100.00;99886.34;4999131;28;20270;-75
2023/07/25 02:27:01;;;;;;;8.48;4.15;;;;;;;22.85;100.00;99883.19;4988642;28;20109;-75
2023/07/25 02:29:26;;;;;;;6.07;3.17;;;;;;;22.45;100.00;99816.00;5006566;28;20033;-76
2023/07/25 02:31:52;;;;;;;9.38;3.65;;;;;;;22.93;100.00;99885.41;5012511;28;20060;-76
2023/07/25 02:34:17;;;;;;;6.47;4.18;;;;;;;22.98;100.00;99902.03;5003887;28;20077;-74
2023/07/25 02:36:43;;;;;;;8.27;3.97;;;;;;;23.03;100.00;99901.81;4993541;28;20058;-76
2023/07/25 02:39:09;;;;;;;6.88;3.83;;;;;;;22.52;100.00;99819.16;4998374;28;20390;-74
2023/07/25 02:41:35;;;;;;;9.68;4.70;;;;;;;22.40;100.00;99815.41;5014189;28;20032;-74
2023/07/25 02:44:01;;;;;;;9.43;4.57;;;;;;;22.94;100.00;99937.94;5001255;28;20414;-75
2023/07/25 02:46:26;;;;;;;7.15;4.07;;;;;;;22.88;100.00;99914.25;5011202;28;20496;-75
2023/07/25 02:48:52;;;;;;;6.25;3.85;;;;;;;22.91;100.00;99930.13;5005108;28;20089;-74
2023/07/25 02:51:18;;;;;;;13.95;4.45;;;;;;;22.98;100.00;99936.81;5004520;28;20124;-75
2023/07/25 02:53:43;;;;;;;6.70;3.75;;;;;;;21.94;100.00;99759.25;5019818;28;20029;-74
2023/07/25 02:56:09;;;;;;;7.53;4.28;;;;;;;22.56;100.00;99866.16;5007667;28;20489;-74
2023/07/25 02:58:34;;;;;;;7.78;4.78;;;;;;;22.88;100.00;99932.97;5024874;28;20089;-74
2023/07/25 03:00:59;;;;;;;7.68;5.10;;;;;;;;;;5001726;28;20067;-75
2023/07/25 03:03:25;;;;;;;8.95;4.88;;;;;;;22.92;100.00;99942.53;5002051;28;20053;-74
2023/07/25 03:05:50;;;;;;;7.13;4.00;;;;;;;21.54;100.00;99713.47;5012526;28;20030;-74
2023/07/25 03:08:17;;;;;;;6.88;3.72;;;;;;;22.90;100.00;99921.22;4993503;28;20046;-75
2023/07/25 03:10:42;;;;;;;5.55;4.03;;;;;;;22.85;100.00;99909.06;4993119;28;20050;-75
2023/07/25 03:13:13;;;;;;;6.30;3.03;;;;;;;22.82;100.00;99902.09;4999576;28;20034;-75
2023/07/25 03:15:39;;;;;;;4.82;3.85;;;;;;;22.41;100.00;99833.19;4989234;28;20049;-76
2023/07/25 03:18:07;;;;;;;6.43;3.90;;;;;;;22.47;100.00;99840.81;5007486;28;20037;-75
2023/07/25 03:20:35;;;;;;;6.70;4.07;;;;;;;22.77;100.00;99920.22;4989035;28;20037;-75
2023/07/25 03:23:01;;;;;;;13.13;4.75;;;;;;;22.92;100.00;99921.13;5000392;28;20061;-76
2023/07/25 03:25:26;;;;;;;9.75;5.75;;;;;;;22.42;100.00;99818.84;4995798;28;20121;-75
2023/07/25 03:27:52;;;;;;;7.35;3.53;;;;;;;23.05;100.00;99919.47;5005803;28;20034;-73
2023/07/25 03:30:18;;;;;;;5.97;4.82;;;;;;;22.97;100.00;99906.53;5014086;28;21079;-73
2023/07/25 03:32:43;;;;;;;13.13;4.07;;;;;;;22.54;100.00;99820.78;4999088;28;20040;-74
2023/07/25 03:35:09;;;;;;;8.60;4.57;;;;;;;23.06;100.00;99912.31;4993557;28;20046;-74
2023/07/25 03:37:35;;;;;;;10.40;6.20;;;;;;;22.57;100.00;99808.19;4994672;28;20049;-75
2023/07/25 03:40:00;;;;;;;13.00;3.95;;;;;;;22.89;100.00;99881.19;4994848;28;20046;-74
2023/07/25 03:42:26;;;;;;;7.75;3.78;;;;;;;22.90;100.00;99866.88;4998949;28;20515;-74
2023/07/25 03:44:52;;;;;;;9.45;5.43;;;;;;;22.79;100.00;99834.53;4994051;28;20414;-75
2023/07/25 03:47:17;;;;;;;7.40;4.47;;;;;;;23.38;100.00;99921.06;4995393;28;20046;-74
2023/07/25 03:49:43;;;;;;;6.25;3.88;;;;;;;23.40;100.00;99913.81;5008529;28;20493;-74
2023/07/25 03:52:09;;;;;;;7.78;4.22;;;;;;;22.95;100.00;99830.84;5002511;28;20045;-75
2023/07/25 03:54:34;;;;;;;8.80;5.45;;;;;;;23.05;100.00;99841.88;4989683;28;20065;-74
2023/07/25 03:57:01;;;;;;;11.65;6.70;;;;;;;22.80;100.00;99783.59;5006295;28;20030;-73
2023/07/25 03:59:26;;;;;;;10.10;4.07;;;;;;;23.10;100.00;99817.50;4991728;28;20516;-74
2023/07/25 04:01:52;;;;;;;8.38;3.75;;;;;;;23.05;100.00;99791.03;5009732;28;20065;-74
2023/07/25 04:04:20;;;;;;;14.00;5.35;;;;;;;23.08;100.00;99806.88;5002979;28;20054;-74
2023/07/25 04:06:46;;;;;;;8.60;4.30;;;;;;;23.72;100.00;99884.19;5001450;28;20050;-76
2023/07/25 04:09:11;;;;;;;9.75;4.38;;;;;;;23.71;100.00;99896.69;5015226;28;20046;-76
2023/07/25 04:11:36;;;;;;;10.45;4.65;;;;;;;23.69;100.00;99889.72;4995911;28;20026;-74
2023/07/25 04:14:02;;;;;;;7.22;4.13;;;;;;;23.68;100.00;99875.47;4994009;28;20530;-75
2023/07/25 04:16:28;;;;;;;11.40;4.60;;;;;;;23.16;100.00;99793.06;5006477;28;20398;-74
2023/07/25 04:18:53;;;;;;;11.68;4.40;;;;;;;23.19;100.00;99811.59;5008112;28;20545;-75
2023/07/25 04:21:19;;;;;;;9.82;5.20;;;;;;;23.87;100.00;99917.22;5004772;28;20514;-76
2023/07/25 04:23:44;;;;;;;8.73;4.00;;;;;;;23.46;100.00;99838.47;4990457;28;20119;-74
2023/07/25 04:26:10;;;;;;;7.85;3.88;;;;;;;23.34;100.00;99816.00;5014177;28;20046;-74
2023/07/25 04:28:35;;;;;;;7.07;4.13;;;;;;;23.27;100.00;99795.91;5004725;28;20046;-75
2023/07/25 04:31:00;;;;;;;7.72;4.85;;;;;;;23.35;100.00;99806.13;4995981;28;20068;-75
2023/07/25 04:33:26;;;;;;;14.52;5.35;;;;;;;23.89;100.00;99904.56;4996380;28;20065;-75
2023/07/25 04:35:51;;;;;;;5.63;4.18;;;;;;;23.90;100.00;99892.88;4986449;28;20065;-74
2023/07/25 04:38:17;;;;;;;8.13;4.55;;;;;;;23.53;100.00;99807.66;5006149;28;20115;-75
2023/07/25 04:40:43;;;;;;;8.07;4.32;;;;;;;24.19;100.00;99899.06;4995803;28;20057;-76
2023/07/25 04:43:10;;;;;;;7.45;5.18;;;;;;;24.12;100.00;99878.97;4992689;28;20065;-75
2023/07/25 04:45:37;;;;;;;9.68;5.97;;;;;;;24.19;100.00;99881.16;5001606;28;20160;-75
2023/07/25 04:48:06;;;;;;;7.70;4.20;;;;;;;24.37;100.00;99878.22;5005019;28;20037;-75
2023/07/25 04:50:31;;;;;;;9.38;6.50;;;;;;;24.46;100.00;99874.94;4992213;28;20030;-76
2023/07/25 04:52:57;;;;;;;9.43;5.50;;;;;;;23.94;100.00;99822.06;5005284;28;20630;-76
2023/07/25 04:55:22;;;;;;;10.90;4.63;;;;;;;24.46;100.00;99901.75;5003334;28;20066;-76
2023/07/25 04:57:49;;;;;;;8.80;4.90;;;;;;;24.38;100.00;99869.22;4990613;28;20058;-76
2023/07/25 05:00:15;;;;;;;10.23;4.85;;;;;;;23.76;100.00;99776.75;4988171;28;20045;-75
2023/07/25 05:02:41;;;;;;;11.63;5.95;;;;;;;24.06;100.00;99809.66;4995901;28;20482;-76
2023/07/25 05:05:07;;;;;;;10.73;5.60;;;;;;;24.65;100.00;99901.41;4990301;28;20057;-73
2023/07/25 05:07:36;;;;;;;8.98;4.57;;;;;;;24.41;100.00;99903.88;4996544;28;20050;-74
2023/07/25 05:10:01;;;;;;;11.38;5.28;;;;;;;24.00;100.00;99824.34;4997068;28;20054;-74
2023/07/25 05:12:27;;;;;;;11.05;4.97;;;;;;;24.60;100.00;99925.00;4996924;28;20045;-75
2023/07/25 05:14:52;;;;;;;7.55;4.53;;;;;;;24.43;100.00;99861.72;5010168;28;20026;-75
2023/07/25 05:17:17;;;;;;;14.50;5.43;;;;;;;24.34;100.00;99811.38;4992676;28;20035;-74
2023/07/25 05:19:43;;;;;;;8.13;4.85;;;;;;;25.03;100.00;99909.59;5009695;28;20577;-74
2023/07/25 05:22:08;;;;;;;10.95;5.32;;;;;;;24.80;100.00;99838.69;5003962;28;20093;-75
2023/07/25 05:24:34;;;;;;;13.45;4.65;;;;;;;25.47;100.00;99838.53;4991047;28;20065;-73
2023/07/25 05:26:59;;;;;;;8.45;5.88;;;;;;;25.84;100.00;99810.78;5016577;28;20036;-73
2023/07/25 05:29:25;;;;;;;6.00;4.15;;;;;;;26.27;100.00;99840.78;4992819;28;20113;-73
2023/07/25 05:31:50;;;;;;;6.28;3.92;;;;;;;27.23;100.00;99923.34;5011704;28;20057;-75
2023/07/25 05:34:16;;;;;;;6.88;4.15;;;;;;;26.95;100.00;99844.63;4998510;28;20046;-73
2023/07/25 05:36:41;;;;;;;10.25;5.28;;;;;;;27.45;100.00;99878.53;5000202;28;20067;-73
2023/07/25 05:39:07;;;;;;;8.20;3.78;;;;;;;27.55;100.00;99847.16;4998145;28;20060;-74
2023/07/25 05:41:32;;;;;;;8.60;3.97;;;;;;;28.32;100.00;99920.06;5007505;28;20033;-75
2023/07/25 05:43:58;;;;;;;8.27;4.93;;;;;;;27.82;100.00;99846.78;4993417;28;20051;-75
2023/07/25 05:46:23;;;;;;;5.85;3.40;;;;;;;28.07;100.00;99910.41;5012724;28;20131;-75
2023/07/25 05:48:49;;;;;;;11.80;4.05;;;;;;;28.77;100.00;99917.22;5002883;28;20049;-75
2023/07/25 05:51:14;;;;;;;8.85;4.78;;;;;;;28.97;100.00;99898.50;4995102;28;20100;-75
2023/07/25 05:53:40;;;;;;;13.40;4.78;;;;;;;28.76;100.00;99830.97;5006144;28;20044;-76
2023/07/25 05:56:05;;;;;;;6.10;4.13;;;;;;;28.97;100.00;99822.88;5008591;28;20441;-75
2023/07/25 05:58:31;;;;;;;6.20;3.40;;;;;;;28.45;100.00;99811.94;4996183;28;20034;-74
2023/07/25 06:00:56;;;;;;;16.67;4.63;;;;;;;28.48;100.00;99894.53;5001783;28;20056;-74
2023/07/25 06:03:22;;;;;;;6.82;4.30;;;;;;;27.98;100.00;99854.53;5007503;28;20138;-75
2023/07/25 06:05:47;;;;;;;10.02;4.55;;;;;;;27.56;100.00;99786.91;4991831;28;20073;-75
2023/07/25 06:08:13;;;;;;;6.60;3.25;;;;;;;28.62;100.00;99857.28;5008517;28;20038;-75
2023/07/25 06:10:39;;;;;;;6.38;5.15;;;;;;;27.96;100.00;99783.66;5011395;28;20046;-74
2023/07/25 06:13:05;;;;;;;6.25;3.97;;;;;;;28.56;100.00;99789.44;5011584;28;20054;-74
2023/07/25 06:15:33;;;;;;;7.65;3.33;;;;;;;28.83;100.00;99760.06;5009065;28;20038;-75
2023/07/25 06:18:03;;;;;;;6.53;3.25;;;;;;;29.57;100.00;99878.00;5012276;28;20018;-75
2023/07/25 06:20:30;;;;;;;6.00;2.33;;;;;;;28.81;98.20;99867.38;5012565;28;20035;-75
2023/07/25 06:22:55;;;;;;;6.05;3.45;;;;;;;28.53;95.74;99809.47;5006706;28;20054;-75
2023/07/25 06:25:21;;;;;;;8.18;4.35;;;;;;;28.99;95.84;99853.31;5018267;28;20075;-75
2023/07/25 06:27:46;;;;;;;6.22;3.97;;;;;;;30.01;90.31;99872.31;5022761;28;20033;-75
2023/07/25 06:30:11;;;;;;;6.63;2.80;;;;;;;30.34;82.95;99876.56;5051821;28;20509;-74
2023/07/25 06:32:37;;;;;;;12.68;3.90;;;;;;;30.39;79.98;99868.00;5017080;28;20117;-75
2023/07/25 06:35:04;;;;;;;4.25;2.75;;;;;;;30.21;90.84;99795.59;5023265;28;20405;-75
2023/07/25 06:37:32;;;;;;;7.03;3.53;;;;;;;30.23;78.63;99774.66;5018399;28;20045;-75
2023/07/25 06:40:00;;;;;;;8.38;3.42;;;;;;;30.41;74.28;99780.22;5014979;28;20129;-74
2023/07/25 06:42:28;;;;;;;17.25;3.72;;;;;;;31.00;73.37;99834.38;5016662;28;20603;-75
2023/07/25 06:44:54;;;;;;;6.60;3.33;;;;;;;31.22;73.93;99872.00;5014188;28;20044;-75
2023/07/25 06:47:20;;;;;;;12.95;4.80;;;;;;;30.97;75.61;99830.09;5013703;28;20037;-69
2023/07/25 06:49:45;;;;;;;5.20;3.75;;;;;;;30.62;73.49;99769.22;5021207;28;20045;-69
2023/07/25 06:52:11;;;;;;;9.60;3.85;;;;;;;30.43;67.19;99866.75;5015236;28;20049;-69
2023/07/25 06:54:38;;;;;;;7.75;3.63;;;;;;;30.38;73.13;99771.56;5014286;28;20669;-69
2023/07/25 06:57:03;;;;;;;9.50;4.47;;;;;;;31.16;66.09;99858.16;5013030;28;20049;-69
2023/07/25 06:59:29;;;;;;;9.02;5.85;;;;;;;30.45;70.02;99751.88;5017112;28;20167;-70
2023/07/25 07:01:56;;;;;;;6.63;5.05;;;;;;;30.85;63.33;99852.94;5012913;28;20050;-67
2023/07/25 07:04:21;;;;;;;8.98;5.22;;;;;;;30.66;69.07;99832.97;5012366;28;20561;-69
2023/07/25 07:06:47;;;;;;;12.40;5.78;;;;;;;30.36;61.27;99766.28;5017060;28;20267;-68
2023/07/25 07:09:13;;;;;;;6.65;4.95;;;;;;;30.54;67.85;99796.19;5017288;28;20041;-67
2023/07/25 07:11:39;;;;;;;9.70;5.40;;;;;;;31.00;67.74;99858.75;5014517;28;20025;-68
2023/07/25 07:14:05;;;;;;;11.55;5.50;;;;;;;30.67;58.29;99864.47;5016861;28;20160;-68
2023/07/25 07:16:30;;;;;;;8.00;4.28;;;;;;;30.57;58.68;99838.38;5013631;28;20730;-69
2023/07/25 07:18:56;;;;;;;9.82;4.32;;;;;;;30.79;56.33;99831.81;5015487;28;20049;-70
2023/07/25 07:21:21;;;;;;;8.90;6.15;;;;;;;30.62;56.46;99790.91;5015804;28;20100;-68
2023/07/25 07:23:47;;;;;;;31.15;6.38;;;;;;;31.00;58.36;99843.38;5014412;28;20684;-68
2023/07/25 07:26:12;;;;;;;8.60;5.28;;;;;;;31.15;62.49;99881.72;5013166;28;20073;-69
2023/07/25 07:28:39;;;;;;;10.75;4.90;;;;;;;31.21;57.66;99889.28;5016598;28;20098;-68
2023/07/25 07:31:05;;;;;;;12.35;3.75;;;;;;;31.06;57.76;99874.44;5014939;28;20046;-68
2023/07/25 07:33:30;;;;;;;12.85;6.25;;;;;;;31.04;56.62;99873.72;5017366;28;20041;-69
2023/07/25 07:35:56;;;;;;;16.33;6.40;;;;;;;30.65;52.43;99797.91;5013245;28;20413;-69
2023/07/25 07:38:21;;;;;;;7.53;3.70;;;;;;;30.96;54.99;99836.53;5009778;28;20072;-69
2023/07/25 07:40:47;;;;;;;10.10;5.38;;;;;;;31.10;54.83;99855.03;5012630;28;20798;-69
2023/07/25 07:43:15;;;;;;;11.20;6.00;;;;;;;30.75;52.82;99801.44;5013223;28;20046;-69
2023/07/25 07:45:40;;;;;;;9.50;4.22;;;;;;;31.44;51.52;99853.69;5015483;28;20076;-69
2023/07/25 07:48:06;;;;;;;12.05;5.53;;;;;;;31.41;55.80;99857.56;5003443;28;20390;-70
2023/07/25 07:50:33;;;;;;;12.50;5.32;;;;;;;31.55;55.01;99862.50;5010552;28;20037;-73
2023/07/25 07:52:59;;;;;;;13.07;6.45;;;;;;;31.50;55.53;99836.84;5014554;28;20042;-70
2023/07/25 07:55:25;;;;;;;11.48;6.45;;;;;;;31.53;53.10;99852.78;5008194;28;20057;-71
2023/07/25 07:57:50;;;;;;;14.40;5.55;;;;;;;31.27;49.24;99855.28;5007492;28;20069;-66
2023/07/25 08:00:16;;;;;;;10.35;5.05;;;;;;;31.15;49.78;99811.22;5007895;28;20042;-69
2023/07/25 08:02:43;;;;;;;6.80;3.63;;;;;;;31.57;50.59;99827.09;5004964;28;20503;-67
2023/07/25 08:05:10;;;;;;;11.50;7.28;;;;;;;31.68;52.09;99823.31;5004263;28;20045;-68
2023/07/25 08:07:35;;;;;;;10.02;5.20;;;;;;;31.36;50.07;99753.22;5005658;28;20060;-71
2023/07/25 08:10:01;;;;;;;6.97;4.97;;;;;;;31.16;49.69;99736.19;5007521;28;20041;-69
2023/07/25 08:12:26;;;;;;;10.98;6.03;;;;;;;31.58;51.82;99744.69;5007462;28;20048;-76
2023/07/25 08:14:52;;;;;;;8.45;5.70;;;;;;;32.05;53.85;99776.28;5004802;28;20038;-61
2023/07/25 08:17:18;;;;;;;10.13;6.70;;;;;;;32.14;52.99;99800.63;5008185;28;20029;-62
2023/07/25 08:19:44;;;;;;;12.18;5.40;;;;;;;31.70;47.95;99726.34;5022749;28;20088;-63
2023/07/25 08:22:10;;;;;;;11.60;5.28;;;;;;;32.26;49.93;99784.97;5006625;28;20050;-62
2023/07/25 08:24:36;;;;;;;7.13;5.15;;;;;;;32.17;47.26;99756.03;5002512;28;20194;-70
2023/07/25 08:27:01;;;;;;;10.98;5.05;;;;;;;32.15;47.69;99714.63;5006311;28;20034;-69
2023/07/25 08:29:27;;;;;;;16.50;6.72;;;;;;;32.22;47.18;99718.41;5008167;28;20036;-70
2023/07/25 08:31:53;;;;;;;14.18;6.10;;;;;;;32.78;47.90;99768.81;5002794;28;20054;-69
2023/07/25 08:34:19;;;;;;;8.07;6.28;;;;;;;32.16;45.20;99689.16;5005819;28;20057;-71
2023/07/25 08:36:45;;;;;;;8.38;5.60;;;;;;;32.43;46.97;99696.34;4999111;28;20539;-70
2023/07/25 08:39:10;;;;;;;7.20;5.05;;;;;;;32.73;44.05;99773.88;4999807;28;20133;-70
2023/07/25 08:41:42;;;;;;;8.48;4.32;;;;;;;32.48;44.17;99713.03;5004162;28;20501;-70
2023/07/25 08:44:12;;;;;;;10.95;4.57;;;;;;;32.80;45.35;99776.78;5004981;28;21563;-70
2023/07/25 08:46:45;;;;;;;10.88;5.22;;;;;;;32.79;46.28;99707.13;4999030;28;20050;-70
2023/07/25 08:49:15;;;;;;;15.70;7.30;;;;;;;32.96;45.48;99708.06;4998348;28;20056;-69
2023/07/25 08:51:42;;;;;;;7.95;4.53;;;;;;;32.55;44.50;99683.41;5002111;28;20050;-69
2023/07/25 08:54:10;;;;;;;12.60;5.18;;;;;;;33.65;44.97;99766.06;4996608;28;20052;-78
2023/07/25 08:56:38;;;;;;;9.73;4.80;;;;;;;33.90;43.44;99766.13;5005288;28;20036;-74
2023/07/25 08:59:05;;;;;;;12.27;4.45;;;;;;;34.33;43.10;99748.69;5003652;28;20097;-73
2023/07/25 09:01:31;;;;;;;10.30;6.00;;;;;;;34.21;42.17;99677.38;5005000;28;20350;-75
2023/07/25 09:03:58;;;;;;;11.05;5.80;;;;;;;34.45;43.00;99675.63;5001454;28;20046;-77
2023/07/25 09:06:24;;;;;;;7.10;5.18;;;;;;;34.65;41.57;99700.66;5006265;28;20060;-77
2023/07/25 09:08:50;;;;;;;13.98;8.00;;;;;;;34.67;39.90;99704.06;5000661;28;20413;-76
2023/07/25 09:11:19;;;;;;;8.32;4.60;;;;;;;33.80;40.25;99651.97;5006677;28;20501;-76
2023/07/25 09:13:45;;;;;;;7.43;5.88;;;;;;;33.84;41.04;99745.88;5001375;28;20042;-75
2023/07/25 09:16:10;;;;;;;8.45;4.60;;;;;;;33.96;40.92;99615.72;5002049;28;20061;-75
2023/07/25 09:18:36;;;;;;;12.05;4.70;;;;;;;34.32;40.08;99703.38;5003690;28;20474;-75
2023/07/25 09:21:02;;;;;;;12.85;6.63;;;;;;;34.54;41.60;99742.72;5003402;28;20053;-75
2023/07/25 09:23:28;;;;;;;12.65;5.93;;;;;;;34.73;39.00;99670.66;5001460;28;20042;-76
2023/07/25 09:26:04;;;;;;;11.70;5.97;;;;;;;35.48;39.90;99667.47;4991677;28;20053;-75
2023/07/25 09:28:30;;;;;;;9.15;5.75;;;;;;;35.98;39.70;99689.00;5002989;28;20053;-76
2023/07/25 09:30:56;;;;;;;8.68;4.07;;;;;;;35.50;37.62;99659.94;5003711;28;20058;-74
2023/07/25 09:33:26;;;;;;;7.05;3.50;;;;;;;33.83;39.40;99651.63;5006121;28;20652;-77
2023/07/25 09:35:52;;;;;;;17.90;5.03;;;;;;;35.99;38.93;99735.25;5002328;28;20117;-76
2023/07/25 09:38:18;;;;;;;12.35;5.88;;;;;;;35.67;39.23;99688.03;4987108;28;20070;-75
2023/07/25 09:40:45;;;;;;;11.30;5.63;;;;;;;36.38;38.72;99728.81;4997728;28;20057;-75
2023/07/25 09:43:31;;;;;;;6.97;4.03;;;;;;;36.58;38.00;99733.78;4993188;28;20051;-76
2023/07/25 09:45:56;;;;;;;7.30;6.32;;;;;;;36.39;38.21;99719.59;4977127;28;20403;-74
2023/07/25 09:48:22;;;;;;;10.88;5.53;;;;;;;35.78;39.45;99694.97;4985526;28;20056;-74
2023/07/25 09:50:48;;;;;;;9.02;4.88;;;;;;;37.07;38.77;99720.50;5005518;28;20044;-76
2023/07/25 09:53:17;;;;;;;9.95;4.68;;;;;;;36.38;37.34;99646.84;4998566;28;20473;-75
2023/07/25 09:55:44;;;;;;;9.18;4.63;;;;;;;37.07;36.72;99716.91;4987821;28;20057;-77
2023/07/25 09:58:11;;;;;;;7.68;4.72;;;;;;;36.22;36.96;99614.19;4993180;28;20073;-74
2023/07/25 10:00:36;;;;;;;12.25;5.28;;;;;;;37.24;37.42;99640.94;4996130;28;20046;-77
2023/07/25 10:03:02;;;;;;;7.95;4.82;;;;;;;37.47;36.76;99616.97;4983229;28;20541;-77
2023/07/25 10:05:30;;;;;;;7.57;4.57;;;;;;;38.16;35.24;99690.38;5014729;28;20035;-74
2023/07/25 10:07:59;;;;;;;7.30;4.38;;;;;;;37.02;35.85;99605.28;4984202;28;20043;-74
2023/07/25 10:10:26;;;;;;;8.77;5.35;;;;;;;38.34;36.55;99667.16;4995859;28;20052;-76
2023/07/25 10:12:53;;;;;;;6.30;4.28;;;;;;;37.73;35.60;99624.66;4987405;28;20043;-75
2023/07/25 10:15:20;;;;;;;6.10;4.57;;;;;;;38.22;35.32;99675.06;4984856;28;20184;-75
2023/07/25 10:17:46;;;;;;;9.38;6.15;;;;;;;36.28;36.17;99528.78;4985765;28;20082;-74
2023/07/25 10:20:20;;;;;;;6.70;3.55;;;;;;;36.46;36.56;99641.28;4996447;28;20042;-74
2023/07/25 10:22:46;;;;;;;9.93;4.75;;;;;;;36.35;35.80;99592.56;4989461;28;20054;-74
2023/07/25 10:25:27;;;;;;;9.82;3.95;;;;;;;37.49;35.72;99660.59;4976557;28;20658;-74
2023/07/25 10:28:04;;;;;;;9.40;5.13;;;;;;;37.62;34.93;99641.59;4988781;28;20076;-76
2023/07/25 10:30:41;;;;;;;6.63;3.55;;;;;;;37.12;35.77;99640.59;4994687;28;20084;-75
2023/07/25 10:33:07;;;;;;;10.85;5.25;;;;;;;38.20;35.75;99631.41;4995363;28;20045;-76
2023/07/25 10:35:49;;;;;;;9.65;4.35;;;;;;;38.67;34.10;99645.47;5001961;28;20132;-74
2023/07/25 10:38:33;;;;;;;6.95;4.03;;;;;;;37.54;35.25;99639.84;5001111;28;20056;-77
2023/07/25 10:41:08;;;;;;;10.77;5.55;;;;;;;38.54;35.27;99639.88;5000246;28;20136;-76
2023/07/25 10:43:49;;;;;;;7.65;5.85;;;;;;;39.37;34.90;99645.44;5004720;28;20046;-78
2023/07/25 10:46:28;;;;;;;28.25;4.28;;;;;;;37.06;35.41;99559.22;5004074;28;20600;-76
2023/07/25 10:49:03;;;;;;;7.80;5.50;;;;;;;37.69;35.12;99559.50;5005622;28;20121;-76
2023/07/25 10:51:51;;;;;;;8.23;5.60;;;;;;;38.43;34.30;99630.31;5002983;28;20120;-74
2023/07/25 10:54:18;;;;;;;8.77;4.30;;;;;;;37.54;34.67;99560.44;5002946;28;20046;-75
2023/07/25 10:57:20;;;;;;;5.07;3.53;;;;;;;37.78;35.09;99621.31;5003815;28;20442;-75
2023/07/25 10:59:58;;;;;;;7.63;3.63;;;;;;;37.77;34.79;99620.47;5002594;28;20093;-77
2023/07/25 11:02:45;;;;;;;14.82;4.55;;;;;;;38.66;34.75;99591.69;4984441;28;20053;-75
2023/07/25 11:05:13;;;;;;;9.55;5.68;;;;;;;39.29;34.18;99629.97;4984338;28;20046;-76
2023/07/25 11:07:49;;;;;;;11.50;6.38;;;;;;;38.48;34.37;99618.78;4984662;28;20050;-77
2023/07/25 11:10:26;;;;;;;11.95;5.30;;;;;;;36.73;34.13;99540.53;4984619;28;20063;-76
2023/07/25 11:13:00;;;;;;;10.40;4.85;;;;;;;37.63;34.49;99612.31;4980495;28;20459;-76
2023/07/25 11:15:26;;;;;;;6.07;4.20;;;;;;;36.79;34.57;99506.97;5001535;28;20046;-75
2023/07/25 11:17:51;;;;;;;4.35;3.42;;;;;;;37.80;34.66;99521.47;4984989;28;20031;-78
2023/07/25 11:20:21;;;;;;;7.22;3.38;;;;;;;38.49;34.33;99588.41;4988645;28;20046;-78
2023/07/25 11:22:51;;;;;;;6.55;3.55;;;;;;;38.43;34.69;99526.97;4983495;28;20093;-78
2023/07/25 11:25:18;;;;;;;4.40;3.25;;;;;;;38.43;33.72;99576.31;4994336;28;20244;-79